sensor_id;sensor_type;location;lat;lon;timestamp;temperature;humidity
4433;DHT22;2229;48.708;9.706;2022-10-23T00:00:43;13.60;99.90
4433;DHT22;2229;48.708;9.706;2022-10-23T00:03:10;13.70;99.90
4433;DHT22;2229;48.708;9.706;2022-10-23T00:05:38;13.70;99.90
4433;DHT22;2229;48.708;9.706;2022-10-23T00:08:06;13.70;99.90
4433;DHT22;2229;48.708;9.706;2022-10-23T00:10:33;13.60;99.90
4433;DHT22;2229;48.708;9.706;2022-10-23T00:13:01;13.60;99.90
4433;DHT22;2229;48.708;9.706;2022-10-23T00:15:36;13.60;99.90
4433;DHT22;2229;48.708;9.706;2022-10-23T00:18:03;13.60;99.90
4433;DHT22;2229;48.708;9.706;2022-10-23T00:20:30;13.60;99.90
4433;DHT22;2229;48.708;9.706;2022-10-23T00:22:58;13.60;99.90
4433;DHT22;2229;48.708;9.706;2022-10-23T00:25:25;13.60;99.90
4433;DHT22;2229;48.708;9.706;2022-10-23T00:27:52;13.60;99.90
4433;DHT22;2229;48.708;9.706;2022-10-23T00:30:19;13.60;99.90
4433;DHT22;2229;48.708;9.706;2022-10-23T00:32:48;13.60;99.90
4433;DHT22;2229;48.708;9.706;2022-10-23T00:35:15;13.50;99.90
4433;DHT22;2229;48.708;9.706;2022-10-23T00:37:42;13.50;99.90
4433;DHT22;2229;48.708;9.706;2022-10-23T00:40:10;13.50;99.90
4433;DHT22;2229;48.708;9.706;2022-10-23T00:42:37;13.50;99.90
4433;DHT22;2229;48.708;9.706;2022-10-23T00:45:19;13.50;99.90
4433;DHT22;2229;48.708;9.706;2022-10-23T00:47:48;13.50;99.90
4433;DHT22;2229;48.708;9.706;2022-10-23T00:50:16;13.50;99.90
4433;DHT22;2229;48.708;9.706;2022-10-23T00:52:46;13.60;99.90
4433;DHT22;2229;48.708;9.706;2022-10-23T00:55:15;13.50;99.90
4433;DHT22;2229;48.708;9.706;2022-10-23T00:57:44;13.50;99.90
4433;DHT22;2229;48.708;9.706;2022-10-23T01:00:17;13.50;99.90
4433;DHT22;2229;48.708;9.706;2022-10-23T01:02:45;13.50;99.90
4433;DHT22;2229;48.708;9.706;2022-10-23T01:05:13;13.50;99.90
4433;DHT22;2229;48.708;9.706;2022-10-23T01:07:49;13.40;99.90
4433;DHT22;2229;48.708;9.706;2022-10-23T01:10:24;13.40;99.90
4433;DHT22;2229;48.708;9.706;2022-10-23T01:12:59;13.40;99.90
4433;DHT22;2229;48.708;9.706;2022-10-23T01:15:30;13.40;99.90
4433;DHT22;2229;48.708;9.706;2022-10-23T01:18:05;13.40;99.90
4433;DHT22;2229;48.708;9.706;2022-10-23T01:20:40;13.30;99.90
4433;DHT22;2229;48.708;9.706;2022-10-23T01:23:38;13.40;99.90
4433;DHT22;2229;48.708;9.706;2022-10-23T01:26:18;13.30;99.90
4433;DHT22;2229;48.708;9.706;2022-10-23T01:28:55;13.30;99.90
4433;DHT22;2229;48.708;9.706;2022-10-23T01:31:28;13.30;99.90
4433;DHT22;2229;48.708;9.706;2022-10-23T01:33:59;13.30;99.90
4433;DHT22;2229;48.708;9.706;2022-10-23T01:36:30;13.30;99.90
4433;DHT22;2229;48.708;9.706;2022-10-23T01:39:01;13.30;99.90
4433;DHT22;2229;48.708;9.706;2022-10-23T01:41:34;13.30;99.90
4433;DHT22;2229;48.708;9.706;2022-10-23T01:44:08;13.30;99.90
4433;DHT22;2229;48.708;9.706;2022-10-23T01:46:38;13.30;99.90
4433;DHT22;2229;48.708;9.706;2022-10-23T01:49:10;13.40;99.90
4433;DHT22;2229;48.708;9.706;2022-10-23T01:51:40;13.40;99.90
4433;DHT22;2229;48.708;9.706;2022-10-23T01:54:10;13.40;99.90
4433;DHT22;2229;48.708;9.706;2022-10-23T01:56:42;13.40;99.90
4433;DHT22;2229;48.708;9.706;2022-10-23T01:59:13;13.40;99.90
4433;DHT22;2229;48.708;9.706;2022-10-23T02:01:45;13.40;99.90
4433;DHT22;2229;48.708;9.706;2022-10-23T02:04:17;13.40;99.90
4433;DHT22;2229;48.708;9.706;2022-10-23T02:06:47;13.50;99.90
4433;DHT22;2229;48.708;9.706;2022-10-23T02:09:14;13.50;99.90
4433;DHT22;2229;48.708;9.706;2022-10-23T02:11:49;13.50;99.90
4433;DHT22;2229;48.708;9.706;2022-10-23T02:14:25;13.60;99.90
4433;DHT22;2229;48.708;9.706;2022-10-23T02:16:58;13.60;99.90
4433;DHT22;2229;48.708;9.706;2022-10-23T02:19:34;13.60;99.90
4433;DHT22;2229;48.708;9.706;2022-10-23T02:22:12;13.70;99.90
4433;DHT22;2229;48.708;9.706;2022-10-23T02:24:44;13.70;99.90
4433;DHT22;2229;48.708;9.706;2022-10-23T02:27:17;13.70;99.90
4433;DHT22;2229;48.708;9.706;2022-10-23T02:29:52;13.70;99.90
4433;DHT22;2229;48.708;9.706;2022-10-23T02:32:23;13.70;99.90
4433;DHT22;2229;48.708;9.706;2022-10-23T02:34:52;13.70;99.90
4433;DHT22;2229;48.708;9.706;2022-10-23T02:37:19;13.70;99.90
4433;DHT22;2229;48.708;9.706;2022-10-23T02:39:47;13.70;99.90
4433;DHT22;2229;48.708;9.706;2022-10-23T02:42:20;13.70;99.90
4433;DHT22;2229;48.708;9.706;2022-10-23T02:44:57;13.70;99.90
4433;DHT22;2229;48.708;9.706;2022-10-23T02:47:38;13.70;99.90
4433;DHT22;2229;48.708;9.706;2022-10-23T02:50:18;13.70;99.90
4433;DHT22;2229;48.708;9.706;2022-10-23T02:52:51;13.70;99.90
4433;DHT22;2229;48.708;9.706;2022-10-23T02:55:29;13.70;99.90
4433;DHT22;2229;48.708;9.706;2022-10-23T02:58:06;13.60;99.90
4433;DHT22;2229;48.708;9.706;2022-10-23T03:00:44;13.60;99.90
4433;DHT22;2229;48.708;9.706;2022-10-23T03:03:14;13.50;99.90
4433;DHT22;2229;48.708;9.706;2022-10-23T03:05:43;13.50;99.90
4433;DHT22;2229;48.708;9.706;2022-10-23T03:08:13;13.50;99.90
4433;DHT22;2229;48.708;9.706;2022-10-23T03:10:43;13.50;99.90
4433;DHT22;2229;48.708;9.706;2022-10-23T03:13:11;13.40;99.90
4433;DHT22;2229;48.708;9.706;2022-10-23T03:15:44;13.40;99.90
4433;DHT22;2229;48.708;9.706;2022-10-23T03:18:13;13.40;99.90
4433;DHT22;2229;48.708;9.706;2022-10-23T03:20:44;13.40;99.90
4433;DHT22;2229;48.708;9.706;2022-10-23T03:23:13;13.40;99.90
4433;DHT22;2229;48.708;9.706;2022-10-23T03:25:41;13.50;99.90
4433;DHT22;2229;48.708;9.706;2022-10-23T03:28:10;13.50;99.90
4433;DHT22;2229;48.708;9.706;2022-10-23T03:30:59;13.50;99.90
4433;DHT22;2229;48.708;9.706;2022-10-23T03:33:27;13.50;99.90
4433;DHT22;2229;48.708;9.706;2022-10-23T03:35:55;13.60;99.90
4433;DHT22;2229;48.708;9.706;2022-10-23T03:38:23;13.60;99.90
4433;DHT22;2229;48.708;9.706;2022-10-23T03:40:50;13.60;99.90
4433;DHT22;2229;48.708;9.706;2022-10-23T03:43:17;13.60;99.90
4433;DHT22;2229;48.708;9.706;2022-10-23T03:45:44;13.70;99.90
4433;DHT22;2229;48.708;9.706;2022-10-23T03:48:12;13.70;99.90
4433;DHT22;2229;48.708;9.706;2022-10-23T03:50:40;13.70;99.90
4433;DHT22;2229;48.708;9.706;2022-10-23T03:53:07;13.70;99.90
4433;DHT22;2229;48.708;9.706;2022-10-23T03:55:34;13.70;99.90
4433;DHT22;2229;48.708;9.706;2022-10-23T03:58:01;13.70;99.90
4433;DHT22;2229;48.708;9.706;2022-10-23T04:00:28;13.70;99.90
4433;DHT22;2229;48.708;9.706;2022-10-23T04:02:56;13.70;99.90
4433;DHT22;2229;48.708;9.706;2022-10-23T04:05:24;13.80;99.90
4433;DHT22;2229;48.708;9.706;2022-10-23T04:07:55;13.80;99.90
4433;DHT22;2229;48.708;9.706;2022-10-23T04:10:22;13.80;99.90
4433;DHT22;2229;48.708;9.706;2022-10-23T04:12:50;13.80;99.90
4433;DHT22;2229;48.708;9.706;2022-10-23T04:15:17;13.80;99.90
4433;DHT22;2229;48.708;9.706;2022-10-23T04:17:45;13.70;99.90
4433;DHT22;2229;48.708;9.706;2022-10-23T04:20:12;13.70;99.90
4433;DHT22;2229;48.708;9.706;2022-10-23T04:22:41;13.70;99.90
4433;DHT22;2229;48.708;9.706;2022-10-23T04:25:09;13.70;99.90
4433;DHT22;2229;48.708;9.706;2022-10-23T04:27:36;13.70;99.90
4433;DHT22;2229;48.708;9.706;2022-10-23T04:30:06;13.80;99.90
4433;DHT22;2229;48.708;9.706;2022-10-23T04:32:33;13.70;99.90
4433;DHT22;2229;48.708;9.706;2022-10-23T04:35:00;13.80;99.90
4433;DHT22;2229;48.708;9.706;2022-10-23T04:37:30;13.80;99.90
4433;DHT22;2229;48.708;9.706;2022-10-23T04:40:00;13.80;99.90
4433;DHT22;2229;48.708;9.706;2022-10-23T04:42:27;13.80;99.90
4433;DHT22;2229;48.708;9.706;2022-10-23T04:44:56;13.80;99.90
4433;DHT22;2229;48.708;9.706;2022-10-23T04:47:24;13.80;99.90
4433;DHT22;2229;48.708;9.706;2022-10-23T04:49:57;13.80;99.90
4433;DHT22;2229;48.708;9.706;2022-10-23T04:52:42;13.80;99.90
4433;DHT22;2229;48.708;9.706;2022-10-23T04:55:29;13.80;99.90
4433;DHT22;2229;48.708;9.706;2022-10-23T04:58:09;13.80;99.90
4433;DHT22;2229;48.708;9.706;2022-10-23T05:00:36;13.80;99.90
4433;DHT22;2229;48.708;9.706;2022-10-23T05:03:06;13.90;99.90
4433;DHT22;2229;48.708;9.706;2022-10-23T05:05:37;13.90;99.90
4433;DHT22;2229;48.708;9.706;2022-10-23T05:08:25;13.90;99.90
4433;DHT22;2229;48.708;9.706;2022-10-23T05:11:19;14.00;99.90
4433;DHT22;2229;48.708;9.706;2022-10-23T05:13:49;14.00;99.90
4433;DHT22;2229;48.708;9.706;2022-10-23T05:16:27;14.00;99.90
4433;DHT22;2229;48.708;9.706;2022-10-23T05:18:57;14.00;99.90
4433;DHT22;2229;48.708;9.706;2022-10-23T05:21:28;14.00;99.90
4433;DHT22;2229;48.708;9.706;2022-10-23T05:23:59;14.00;99.90
4433;DHT22;2229;48.708;9.706;2022-10-23T05:26:28;14.10;99.90
4433;DHT22;2229;48.708;9.706;2022-10-23T05:28:58;14.00;99.90
4433;DHT22;2229;48.708;9.706;2022-10-23T05:31:26;14.10;99.90
4433;DHT22;2229;48.708;9.706;2022-10-23T05:34:01;14.10;99.90
4433;DHT22;2229;48.708;9.706;2022-10-23T05:36:29;14.10;99.90
4433;DHT22;2229;48.708;9.706;2022-10-23T05:38:56;14.20;99.90
4433;DHT22;2229;48.708;9.706;2022-10-23T05:41:24;14.20;99.90
4433;DHT22;2229;48.708;9.706;2022-10-23T05:43:57;14.20;99.90
4433;DHT22;2229;48.708;9.706;2022-10-23T05:46:43;14.20;99.90
4433;DHT22;2229;48.708;9.706;2022-10-23T05:49:10;14.20;99.90
4433;DHT22;2229;48.708;9.706;2022-10-23T05:51:49;14.30;99.90
4433;DHT22;2229;48.708;9.706;2022-10-23T05:54:22;14.30;99.90
4433;DHT22;2229;48.708;9.706;2022-10-23T05:57:13;14.20;99.90
4433;DHT22;2229;48.708;9.706;2022-10-23T05:59:48;14.20;99.90
4433;DHT22;2229;48.708;9.706;2022-10-23T06:02:39;14.20;99.90
4433;DHT22;2229;48.708;9.706;2022-10-23T06:05:27;14.20;99.90
4433;DHT22;2229;48.708;9.706;2022-10-23T06:08:13;14.10;99.90
4433;DHT22;2229;48.708;9.706;2022-10-23T06:10:40;14.10;99.90
4433;DHT22;2229;48.708;9.706;2022-10-23T06:13:09;14.10;99.90
4433;DHT22;2229;48.708;9.706;2022-10-23T06:15:38;14.10;99.90
4433;DHT22;2229;48.708;9.706;2022-10-23T06:18:09;14.00;99.90
4433;DHT22;2229;48.708;9.706;2022-10-23T06:20:47;14.00;99.90
4433;DHT22;2229;48.708;9.706;2022-10-23T06:23:32;14.00;99.90
4433;DHT22;2229;48.708;9.706;2022-10-23T06:26:23;13.90;99.90
4433;DHT22;2229;48.708;9.706;2022-10-23T06:29:02;14.00;99.90
4433;DHT22;2229;48.708;9.706;2022-10-23T06:31:31;13.90;99.90
4433;DHT22;2229;48.708;9.706;2022-10-23T06:33:58;13.90;99.90
4433;DHT22;2229;48.708;9.706;2022-10-23T06:36:28;13.90;99.90
4433;DHT22;2229;48.708;9.706;2022-10-23T06:39:06;13.90;99.90
4433;DHT22;2229;48.708;9.706;2022-10-23T06:41:55;13.90;99.90
4433;DHT22;2229;48.708;9.706;2022-10-23T06:44:54;14.00;99.90
4433;DHT22;2229;48.708;9.706;2022-10-23T06:47:38;14.00;99.90
4433;DHT22;2229;48.708;9.706;2022-10-23T06:50:23;14.10;99.90
4433;DHT22;2229;48.708;9.706;2022-10-23T06:52:53;14.10;99.90
4433;DHT22;2229;48.708;9.706;2022-10-23T06:55:24;14.20;99.90
4433;DHT22;2229;48.708;9.706;2022-10-23T06:57:52;14.20;99.90
4433;DHT22;2229;48.708;9.706;2022-10-23T07:00:27;14.30;99.90
4433;DHT22;2229;48.708;9.706;2022-10-23T07:02:55;14.40;99.90
4433;DHT22;2229;48.708;9.706;2022-10-23T07:05:22;14.50;99.90
4433;DHT22;2229;48.708;9.706;2022-10-23T07:07:50;14.60;99.90
4433;DHT22;2229;48.708;9.706;2022-10-23T07:10:23;14.70;99.90
4433;DHT22;2229;48.708;9.706;2022-10-23T07:12:56;14.80;99.90
4433;DHT22;2229;48.708;9.706;2022-10-23T07:15:39;14.90;99.90
4433;DHT22;2229;48.708;9.706;2022-10-23T07:18:12;15.00;99.90
4433;DHT22;2229;48.708;9.706;2022-10-23T07:21:07;15.10;99.90
4433;DHT22;2229;48.708;9.706;2022-10-23T07:23:37;15.30;99.90
4433;DHT22;2229;48.708;9.706;2022-10-23T07:26:07;15.60;99.90
4433;DHT22;2229;48.708;9.706;2022-10-23T07:28:36;15.80;99.90
4433;DHT22;2229;48.708;9.706;2022-10-23T07:31:04;16.20;99.90
4433;DHT22;2229;48.708;9.706;2022-10-23T07:33:51;16.70;99.90
4433;DHT22;2229;48.708;9.706;2022-10-23T07:36:20;17.30;99.90
4433;DHT22;2229;48.708;9.706;2022-10-23T07:38:47;17.90;99.20
4433;DHT22;2229;48.708;9.706;2022-10-23T07:41:14;18.40;97.30
4433;DHT22;2229;48.708;9.706;2022-10-23T07:43:43;19.00;96.10
4433;DHT22;2229;48.708;9.706;2022-10-23T07:46:10;19.40;93.60
4433;DHT22;2229;48.708;9.706;2022-10-23T07:48:38;19.70;91.90
4433;DHT22;2229;48.708;9.706;2022-10-23T07:51:11;20.10;91.10
4433;DHT22;2229;48.708;9.706;2022-10-23T07:53:43;20.50;90.40
4433;DHT22;2229;48.708;9.706;2022-10-23T07:56:29;21.00;89.30
4433;DHT22;2229;48.708;9.706;2022-10-23T07:59:18;21.40;86.30
4433;DHT22;2229;48.708;9.706;2022-10-23T08:01:51;21.70;84.50
4433;DHT22;2229;48.708;9.706;2022-10-23T08:04:28;21.90;81.60
4433;DHT22;2229;48.708;9.706;2022-10-23T08:07:07;22.00;81.60
4433;DHT22;2229;48.708;9.706;2022-10-23T08:09:39;22.00;79.90
4433;DHT22;2229;48.708;9.706;2022-10-23T08:12:08;21.90;79.40
4433;DHT22;2229;48.708;9.706;2022-10-23T08:14:35;22.00;78.90
4433;DHT22;2229;48.708;9.706;2022-10-23T08:17:03;22.40;79.60
4433;DHT22;2229;48.708;9.706;2022-10-23T08:19:52;22.90;78.20
4433;DHT22;2229;48.708;9.706;2022-10-23T08:22:25;23.30;74.90
4433;DHT22;2229;48.708;9.706;2022-10-23T08:24:53;23.50;74.80
4433;DHT22;2229;48.708;9.706;2022-10-23T08:27:20;23.70;74.30
4433;DHT22;2229;48.708;9.706;2022-10-23T08:29:48;23.70;73.60
4433;DHT22;2229;48.708;9.706;2022-10-23T08:32:18;23.80;73.20
4433;DHT22;2229;48.708;9.706;2022-10-23T08:35:00;23.90;71.40
4433;DHT22;2229;48.708;9.706;2022-10-23T08:37:31;24.00;70.60
4433;DHT22;2229;48.708;9.706;2022-10-23T08:39:58;24.10;70.40
4433;DHT22;2229;48.708;9.706;2022-10-23T08:43:03;24.50;69.70
4433;DHT22;2229;48.708;9.706;2022-10-23T08:45:35;25.50;67.60
4433;DHT22;2229;48.708;9.706;2022-10-23T08:48:29;26.50;64.70
4433;DHT22;2229;48.708;9.706;2022-10-23T08:51:20;27.50;63.60
4433;DHT22;2229;48.708;9.706;2022-10-23T08:53:56;28.00;60.70
4433;DHT22;2229;48.708;9.706;2022-10-23T08:56:27;28.00;59.30
4433;DHT22;2229;48.708;9.706;2022-10-23T08:59:02;27.90;60.40
4433;DHT22;2229;48.708;9.706;2022-10-23T09:01:36;27.70;58.10
4433;DHT22;2229;48.708;9.706;2022-10-23T09:04:04;27.50;58.60
4433;DHT22;2229;48.708;9.706;2022-10-23T09:06:38;27.50;58.70
4433;DHT22;2229;48.708;9.706;2022-10-23T09:09:27;27.50;58.90
4433;DHT22;2229;48.708;9.706;2022-10-23T09:12:05;27.10;59.70
4433;DHT22;2229;48.708;9.706;2022-10-23T09:14:55;26.90;60.50
4433;DHT22;2229;48.708;9.706;2022-10-23T09:17:24;26.70;60.20
4433;DHT22;2229;48.708;9.706;2022-10-23T09:19:58;26.90;60.30
4433;DHT22;2229;48.708;9.706;2022-10-23T09:22:29;27.20;60.30
4433;DHT22;2229;48.708;9.706;2022-10-23T09:24:58;27.70;59.10
4433;DHT22;2229;48.708;9.706;2022-10-23T09:27:25;28.40;58.40
4433;DHT22;2229;48.708;9.706;2022-10-23T09:29:53;29.10;55.90
4433;DHT22;2229;48.708;9.706;2022-10-23T09:32:32;29.70;55.30
4433;DHT22;2229;48.708;9.706;2022-10-23T09:34:59;30.30;55.00
4433;DHT22;2229;48.708;9.706;2022-10-23T09:37:28;30.90;54.60
4433;DHT22;2229;48.708;9.706;2022-10-23T09:40:17;31.20;52.60
4433;DHT22;2229;48.708;9.706;2022-10-23T09:42:56;31.30;52.10
4433;DHT22;2229;48.708;9.706;2022-10-23T09:45:29;31.40;52.00
4433;DHT22;2229;48.708;9.706;2022-10-23T09:48:11;31.70;52.60
4433;DHT22;2229;48.708;9.706;2022-10-23T09:50:48;31.90;52.30
4433;DHT22;2229;48.708;9.706;2022-10-23T09:53:17;32.20;52.60
4433;DHT22;2229;48.708;9.706;2022-10-23T09:56:25;32.50;52.50
4433;DHT22;2229;48.708;9.706;2022-10-23T09:58:56;33.00;52.30
4433;DHT22;2229;48.708;9.706;2022-10-23T10:01:28;33.20;51.90
4433;DHT22;2229;48.708;9.706;2022-10-23T10:04:06;33.40;51.30
4433;DHT22;2229;48.708;9.706;2022-10-23T10:06:34;33.20;50.40
4433;DHT22;2229;48.708;9.706;2022-10-23T10:09:05;32.90;49.10
4433;DHT22;2229;48.708;9.706;2022-10-23T10:11:39;32.60;50.30
4433;DHT22;2229;48.708;9.706;2022-10-23T10:14:39;32.40;50.90
4433;DHT22;2229;48.708;9.706;2022-10-23T10:17:17;32.30;50.30
4433;DHT22;2229;48.708;9.706;2022-10-23T10:20:09;32.50;51.00
4433;DHT22;2229;48.708;9.706;2022-10-23T10:22:43;32.50;50.10
4433;DHT22;2229;48.708;9.706;2022-10-23T10:25:15;32.20;49.70
4433;DHT22;2229;48.708;9.706;2022-10-23T10:27:53;31.90;50.90
4433;DHT22;2229;48.708;9.706;2022-10-23T10:30:24;31.30;50.90
4433;DHT22;2229;48.708;9.706;2022-10-23T10:32:57;30.50;50.90
4433;DHT22;2229;48.708;9.706;2022-10-23T10:35:36;29.70;51.40
4433;DHT22;2229;48.708;9.706;2022-10-23T10:38:18;28.80;52.30
4433;DHT22;2229;48.708;9.706;2022-10-23T10:41:11;28.10;53.40
4433;DHT22;2229;48.708;9.706;2022-10-23T10:43:49;27.40;54.00
4433;DHT22;2229;48.708;9.706;2022-10-23T10:46:25;27.00;55.30
4433;DHT22;2229;48.708;9.706;2022-10-23T10:49:03;26.70;55.30
4433;DHT22;2229;48.708;9.706;2022-10-23T10:51:41;26.40;56.00
4433;DHT22;2229;48.708;9.706;2022-10-23T10:54:22;26.10;56.60
4433;DHT22;2229;48.708;9.706;2022-10-23T10:56:52;25.80;57.60
4433;DHT22;2229;48.708;9.706;2022-10-23T10:59:23;25.60;58.20
4433;DHT22;2229;48.708;9.706;2022-10-23T11:01:58;25.30;58.70
4433;DHT22;2229;48.708;9.706;2022-10-23T11:04:31;25.20;59.20
4433;DHT22;2229;48.708;9.706;2022-10-23T11:07:06;25.20;59.80
4433;DHT22;2229;48.708;9.706;2022-10-23T11:09:33;24.90;59.90
4433;DHT22;2229;48.708;9.706;2022-10-23T11:12:00;24.70;60.20
4433;DHT22;2229;48.708;9.706;2022-10-23T11:14:32;24.40;61.10
4433;DHT22;2229;48.708;9.706;2022-10-23T11:17:03;24.10;61.90
4433;DHT22;2229;48.708;9.706;2022-10-23T11:19:39;24.00;62.80
4433;DHT22;2229;48.708;9.706;2022-10-23T11:22:10;23.80;63.30
4433;DHT22;2229;48.708;9.706;2022-10-23T11:24:57;23.70;64.00
4433;DHT22;2229;48.708;9.706;2022-10-23T11:27:41;23.60;64.80
4433;DHT22;2229;48.708;9.706;2022-10-23T11:30:43;23.60;65.20
4433;DHT22;2229;48.708;9.706;2022-10-23T11:33:38;23.60;66.10
4433;DHT22;2229;48.708;9.706;2022-10-23T11:36:12;23.40;66.50
4433;DHT22;2229;48.708;9.706;2022-10-23T11:38:43;23.20;67.00
4433;DHT22;2229;48.708;9.706;2022-10-23T11:41:22;22.90;67.40
4433;DHT22;2229;48.708;9.706;2022-10-23T11:44:01;22.70;68.00
4433;DHT22;2229;48.708;9.706;2022-10-23T11:46:33;22.50;68.70
4433;DHT22;2229;48.708;9.706;2022-10-23T11:49:02;22.20;69.60
4433;DHT22;2229;48.708;9.706;2022-10-23T11:51:33;22.00;70.20
4433;DHT22;2229;48.708;9.706;2022-10-23T11:54:05;21.80;70.90
4433;DHT22;2229;48.708;9.706;2022-10-23T11:56:33;21.70;71.50
4433;DHT22;2229;48.708;9.706;2022-10-23T11:59:21;21.60;72.10
4433;DHT22;2229;48.708;9.706;2022-10-23T12:01:53;21.50;72.90
4433;DHT22;2229;48.708;9.706;2022-10-23T12:04:25;21.40;73.20
4433;DHT22;2229;48.708;9.706;2022-10-23T12:06:57;21.40;73.50
4433;DHT22;2229;48.708;9.706;2022-10-23T12:09:32;21.30;73.90
4433;DHT22;2229;48.708;9.706;2022-10-23T12:12:26;21.30;74.30
4433;DHT22;2229;48.708;9.706;2022-10-23T12:15:07;21.20;74.70
4433;DHT22;2229;48.708;9.706;2022-10-23T12:17:38;21.20;74.60
4433;DHT22;2229;48.708;9.706;2022-10-23T12:20:20;21.30;74.80
4433;DHT22;2229;48.708;9.706;2022-10-23T12:22:58;21.30;74.80
4433;DHT22;2229;48.708;9.706;2022-10-23T12:25:33;21.40;75.90
4433;DHT22;2229;48.708;9.706;2022-10-23T12:28:07;21.50;74.70
4433;DHT22;2229;48.708;9.706;2022-10-23T12:30:42;21.50;74.70
4433;DHT22;2229;48.708;9.706;2022-10-23T12:33:15;21.70;74.70
4433;DHT22;2229;48.708;9.706;2022-10-23T12:38:32;21.90;74.60
4433;DHT22;2229;48.708;9.706;2022-10-23T12:41:10;22.00;74.60
4433;DHT22;2229;48.708;9.706;2022-10-23T12:43:39;22.10;75.50
4433;DHT22;2229;48.708;9.706;2022-10-23T12:46:22;22.20;74.70
4433;DHT22;2229;48.708;9.706;2022-10-23T12:48:53;22.30;74.90
4433;DHT22;2229;48.708;9.706;2022-10-23T12:51:23;22.50;74.70
4433;DHT22;2229;48.708;9.706;2022-10-23T12:53:50;22.50;74.00
4433;DHT22;2229;48.708;9.706;2022-10-23T12:56:18;22.60;73.70
4433;DHT22;2229;48.708;9.706;2022-10-23T12:58:48;22.60;74.00
4433;DHT22;2229;48.708;9.706;2022-10-23T13:01:25;22.70;74.50
4433;DHT22;2229;48.708;9.706;2022-10-23T13:03:58;22.60;73.90
4433;DHT22;2229;48.708;9.706;2022-10-23T13:06:28;22.60;74.30
4433;DHT22;2229;48.708;9.706;2022-10-23T13:09:22;22.70;74.70
4433;DHT22;2229;48.708;9.706;2022-10-23T13:12:18;22.80;74.50
4433;DHT22;2229;48.708;9.706;2022-10-23T13:14:55;22.90;74.30
4433;DHT22;2229;48.708;9.706;2022-10-23T13:17:33;23.00;74.50
4433;DHT22;2229;48.708;9.706;2022-10-23T13:20:19;23.10;74.00
4433;DHT22;2229;48.708;9.706;2022-10-23T13:22:48;23.10;74.30
4433;DHT22;2229;48.708;9.706;2022-10-23T13:25:21;23.20;74.50
4433;DHT22;2229;48.708;9.706;2022-10-23T13:27:49;23.20;72.20
4433;DHT22;2229;48.708;9.706;2022-10-23T13:30:30;23.20;72.10
4433;DHT22;2229;48.708;9.706;2022-10-23T13:32:58;23.10;72.30
4433;DHT22;2229;48.708;9.706;2022-10-23T13:35:27;23.10;72.60
4433;DHT22;2229;48.708;9.706;2022-10-23T13:37:54;23.10;72.00
4433;DHT22;2229;48.708;9.706;2022-10-23T13:40:23;23.10;72.40
4433;DHT22;2229;48.708;9.706;2022-10-23T13:42:52;23.10;72.40
4433;DHT22;2229;48.708;9.706;2022-10-23T13:45:22;23.20;73.00
4433;DHT22;2229;48.708;9.706;2022-10-23T13:47:50;23.20;73.20
4433;DHT22;2229;48.708;9.706;2022-10-23T13:50:18;23.20;72.90
4433;DHT22;2229;48.708;9.706;2022-10-23T13:52:47;23.20;72.90
4433;DHT22;2229;48.708;9.706;2022-10-23T13:55:19;23.10;73.40
4433;DHT22;2229;48.708;9.706;2022-10-23T13:57:46;23.10;73.60
4433;DHT22;2229;48.708;9.706;2022-10-23T14:00:15;23.10;74.20
4433;DHT22;2229;48.708;9.706;2022-10-23T14:02:42;23.00;74.40
4433;DHT22;2229;48.708;9.706;2022-10-23T14:05:09;23.00;75.30
4433;DHT22;2229;48.708;9.706;2022-10-23T14:07:37;22.90;74.90
4433;DHT22;2229;48.708;9.706;2022-10-23T14:10:06;22.90;75.50
4433;DHT22;2229;48.708;9.706;2022-10-23T14:12:38;22.80;75.90
4433;DHT22;2229;48.708;9.706;2022-10-23T14:15:06;22.70;76.40
4433;DHT22;2229;48.708;9.706;2022-10-23T14:17:34;22.60;76.80
4433;DHT22;2229;48.708;9.706;2022-10-23T14:20:02;22.60;77.40
4433;DHT22;2229;48.708;9.706;2022-10-23T14:22:29;22.50;77.80
4433;DHT22;2229;48.708;9.706;2022-10-23T14:24:56;22.40;78.10
4433;DHT22;2229;48.708;9.706;2022-10-23T14:27:25;22.30;78.60
4433;DHT22;2229;48.708;9.706;2022-10-23T14:29:52;22.20;78.90
4433;DHT22;2229;48.708;9.706;2022-10-23T14:32:19;22.20;79.00
4433;DHT22;2229;48.708;9.706;2022-10-23T14:34:50;22.10;79.20
4433;DHT22;2229;48.708;9.706;2022-10-23T14:37:21;22.00;79.10
4433;DHT22;2229;48.708;9.706;2022-10-23T14:39:48;22.00;79.10
4433;DHT22;2229;48.708;9.706;2022-10-23T14:42:15;21.90;79.20
4433;DHT22;2229;48.708;9.706;2022-10-23T14:44:44;21.80;79.40
4433;DHT22;2229;48.708;9.706;2022-10-23T14:47:11;21.80;79.80
4433;DHT22;2229;48.708;9.706;2022-10-23T14:49:38;21.70;80.60
4433;DHT22;2229;48.708;9.706;2022-10-23T14:52:06;21.60;79.70
4433;DHT22;2229;48.708;9.706;2022-10-23T14:54:33;21.60;79.50
4433;DHT22;2229;48.708;9.706;2022-10-23T14:57:01;21.50;79.80
4433;DHT22;2229;48.708;9.706;2022-10-23T14:59:29;21.50;79.90
4433;DHT22;2229;48.708;9.706;2022-10-23T15:01:57;21.50;80.30
4433;DHT22;2229;48.708;9.706;2022-10-23T15:04:24;21.40;80.40
4433;DHT22;2229;48.708;9.706;2022-10-23T15:06:52;21.40;80.70
4433;DHT22;2229;48.708;9.706;2022-10-23T15:09:19;21.30;80.80
4433;DHT22;2229;48.708;9.706;2022-10-23T15:11:47;21.30;80.90
4433;DHT22;2229;48.708;9.706;2022-10-23T15:14:14;21.30;81.50
4433;DHT22;2229;48.708;9.706;2022-10-23T15:17:21;21.20;81.60
4433;DHT22;2229;48.708;9.706;2022-10-23T15:19:48;21.10;81.50
4433;DHT22;2229;48.708;9.706;2022-10-23T15:22:15;21.10;81.50
4433;DHT22;2229;48.708;9.706;2022-10-23T15:24:44;21.00;81.60
4433;DHT22;2229;48.708;9.706;2022-10-23T15:27:12;21.00;81.70
4433;DHT22;2229;48.708;9.706;2022-10-23T15:29:39;21.00;81.80
4433;DHT22;2229;48.708;9.706;2022-10-23T15:32:08;21.00;81.90
4433;DHT22;2229;48.708;9.706;2022-10-23T15:34:37;21.00;81.90
4433;DHT22;2229;48.708;9.706;2022-10-23T15:37:08;20.90;81.80
4433;DHT22;2229;48.708;9.706;2022-10-23T15:39:35;20.90;81.80
4433;DHT22;2229;48.708;9.706;2022-10-23T15:42:04;20.90;82.00
4433;DHT22;2229;48.708;9.706;2022-10-23T15:44:49;20.80;81.90
4433;DHT22;2229;48.708;9.706;2022-10-23T15:47:16;20.80;81.90
4433;DHT22;2229;48.708;9.706;2022-10-23T15:49:45;20.70;81.80
4433;DHT22;2229;48.708;9.706;2022-10-23T15:52:12;20.70;82.20
4433;DHT22;2229;48.708;9.706;2022-10-23T15:54:39;20.60;83.10
4433;DHT22;2229;48.708;9.706;2022-10-23T15:57:06;20.60;82.60
4433;DHT22;2229;48.708;9.706;2022-10-23T15:59:37;20.50;82.70
4433;DHT22;2229;48.708;9.706;2022-10-23T16:02:04;20.50;82.80
4433;DHT22;2229;48.708;9.706;2022-10-23T16:04:31;20.40;82.80
4433;DHT22;2229;48.708;9.706;2022-10-23T16:07:01;20.40;82.60
4433;DHT22;2229;48.708;9.706;2022-10-23T16:09:28;20.30;82.40
4433;DHT22;2229;48.708;9.706;2022-10-23T16:12:18;20.30;82.20
4433;DHT22;2229;48.708;9.706;2022-10-23T16:14:45;20.30;82.40
4433;DHT22;2229;48.708;9.706;2022-10-23T16:17:12;20.20;82.40
4433;DHT22;2229;48.708;9.706;2022-10-23T16:19:40;20.30;82.50
4433;DHT22;2229;48.708;9.706;2022-10-23T16:22:08;20.20;82.50
4433;DHT22;2229;48.708;9.706;2022-10-23T16:24:36;20.20;82.40
4433;DHT22;2229;48.708;9.706;2022-10-23T16:27:03;20.20;82.40
4433;DHT22;2229;48.708;9.706;2022-10-23T16:29:31;20.20;82.50
4433;DHT22;2229;48.708;9.706;2022-10-23T16:31:58;20.10;83.00
4433;DHT22;2229;48.708;9.706;2022-10-23T16:34:25;20.10;83.20
4433;DHT22;2229;48.708;9.706;2022-10-23T16:36:52;20.10;83.50
4433;DHT22;2229;48.708;9.706;2022-10-23T16:39:53;20.00;83.90
4433;DHT22;2229;48.708;9.706;2022-10-23T16:42:39;20.00;84.60